Time;durP1;ratioP1;P1;durP2;ratioP2;P2;SDS_P1;SDS_P2;PMS_P1;PMS_P2;Temp;Humidity;BMP_temperature;BMP_pressure;BME280_temperature;BME280_humidity;BME280_pressure;Samples;Min_cycle;Max_cycle;Signal;HPM_P1;HPM_P2
2023/07/10 00:00:04;;;;;;;15.83;6.70;;;;;;;26.28;69.00;99183.53;5014853;28;20126;-57
2023/07/10 00:02:34;;;;;;;17.23;6.90;;;;;;;26.53;70.93;99182.81;5024457;28;20055;-56
2023/07/10 00:05:13;;;;;;;17.83;6.13;;;;;;;26.76;68.92;99182.31;5013274;28;20051;-57
2023/07/10 00:07:45;;;;;;;10.32;5.20;;;;;;;26.65;65.92;99176.22;5013182;28;20502;-58
2023/07/10 00:10:18;;;;;;;10.07;4.70;;;;;;;26.67;65.41;99193.00;5023913;28;20088;-58
2023/07/10 00:12:48;;;;;;;14.57;5.27;;;;;;;26.90;64.36;99184.47;5013000;28;20087;-58
2023/07/10 00:15:21;;;;;;;14.00;5.53;;;;;;;26.65;63.05;99144.06;5023055;28;20064;-57
2023/07/10 00:17:53;;;;;;;12.23;5.20;;;;;;;26.88;63.96;99122.13;5016316;28;20395;-59
2023/07/10 00:20:26;;;;;;;10.57;5.47;;;;;;;27.03;63.35;99184.91;5027952;28;20454;-58
2023/07/10 00:22:58;;;;;;;12.93;5.20;;;;;;;27.09;64.44;99184.28;5017160;28;20510;-58
2023/07/10 00:25:29;;;;;;;15.87;5.40;;;;;;;27.01;63.66;99181.53;5028175;28;20079;-58
2023/07/10 00:28:00;;;;;;;16.17;5.67;;;;;;;26.87;64.93;99192.81;5033670;28;20067;-58
2023/07/10 00:30:31;;;;;;;14.40;5.67;;;;;;;26.80;63.74;99183.72;5047710;28;20056;-56
2023/07/10 00:33:02;;;;;;;10.00;5.53;;;;;;;26.85;64.21;99186.78;5037605;28;20056;-58
2023/07/10 00:35:33;;;;;;;13.30;5.73;;;;;;;26.94;64.51;99195.72;5047771;28;20044;-58
2023/07/10 00:38:18;;;;;;;16.53;6.33;;;;;;;26.93;64.67;99181.47;5030832;28;20132;-58
2023/07/10 00:40:49;;;;;;;13.43;5.40;;;;;;;26.99;63.92;99196.94;5017336;28;20454;-58
2023/07/10 00:43:29;;;;;;;16.47;5.60;;;;;;;27.04;63.47;99210.72;5008068;28;20144;-58
2023/07/10 00:46:10;;;;;;;19.73;5.80;;;;;;;27.01;64.14;99203.00;5004183;28;20456;-56
2023/07/10 00:48:44;;;;;;;11.20;5.40;;;;;;;27.11;64.10;99206.41;5016913;28;20055;-57
2023/07/10 00:51:22;;;;;;;17.03;4.80;;;;;;;26.81;63.63;99163.94;5027698;28;20136;-57
2023/07/10 00:53:56;;;;;;;14.37;5.50;;;;;;;26.81;63.40;99204.16;5017076;28;20151;-57
2023/07/10 00:56:30;;;;;;;12.50;5.30;;;;;;;27.02;63.37;99204.66;5027206;28;20134;-56
2023/07/10 00:59:20;;;;;;;10.13;5.00;;;;;;;27.15;63.20;99209.59;5012066;28;20054;-59
2023/07/10 01:02:26;;;;;;;17.47;4.67;;;;;;;27.37;62.71;99170.72;5007616;28;20053;-60
2023/07/10 01:05:02;;;;;;;13.50;4.67;;;;;;;27.66;61.31;99183.78;5008126;28;20114;-58
2023/07/10 01:07:38;;;;;;;14.13;5.50;;;;;;;27.49;61.16;99142.63;5020740;28;20049;-58
2023/07/10 01:10:12;;;;;;;9.60;5.00;;;;;;;28.06;61.54;99205.59;5008650;28;20111;-58
2023/07/10 01:12:45;;;;;;;15.80;4.57;;;;;;;28.30;61.04;99207.50;5010349;28;20601;-59
2023/07/10 01:15:34;;;;;;;8.17;4.80;;;;;;;28.70;60.32;99195.97;5020244;28;20114;-60
2023/07/10 01:18:05;;;;;;;10.57;4.83;;;;;;;28.90;59.91;99206.41;5011018;28;20068;-59
2023/07/10 01:20:41;;;;;;;12.50;5.03;;;;;;;28.97;58.39;99202.03;5022257;28;20057;-59
2023/07/10 01:23:13;;;;;;;18.43;5.23;;;;;;;28.71;58.08;99202.22;5011498;28;20059;-60
2023/07/10 01:25:49;;;;;;;8.60;5.30;;;;;;;28.42;59.88;99205.34;5011709;28;20073;-59
2023/07/10 01:28:22;;;;;;;11.63;6.17;;;;;;;28.43;61.92;99204.31;5022175;28;20124;-57
2023/07/10 01:30:54;;;;;;;9.63;5.20;;;;;;;28.56;62.16;99205.56;5001258;28;20554;-57
2023/07/10 01:33:28;;;;;;;9.60;5.57;;;;;;;28.65;62.19;99208.25;5015954;28;20446;-57
2023/07/10 01:36:02;;;;;;;11.97;5.97;;;;;;;28.59;64.45;99209.75;5003340;28;20365;-57
2023/07/10 01:38:39;;;;;;;18.40;6.37;;;;;;;28.54;63.05;99202.19;5022841;28;20449;-57
2023/07/10 01:41:22;;;;;;;12.50;6.57;;;;;;;28.26;64.08;99182.00;5009875;28;20056;-59
2023/07/10 01:43:52;;;;;;;16.93;6.53;;;;;;;28.23;65.05;99215.38;5008707;28;20060;-58
2023/07/10 01:46:25;;;;;;;9.90;6.07;;;;;;;27.83;67.22;99219.63;5020438;28;20084;-59
2023/07/10 01:48:59;;;;;;;9.53;6.03;;;;;;;27.79;65.95;99207.47;5011211;28;20053;-57
2023/07/10 01:51:30;;;;;;;12.87;5.67;;;;;;;27.64;66.61;99219.84;5020617;28;20049;-59
2023/07/10 01:54:05;;;;;;;15.73;6.50;;;;;;;27.38;67.29;99204.56;5010764;28;20045;-58
2023/07/10 01:56:36;;;;;;;14.50;6.17;;;;;;;27.38;68.29;99220.66;5019674;28;20084;-56
2023/07/10 01:59:06;;;;;;;9.60;5.33;;;;;;;27.49;66.76;99222.25;5011331;28;20037;-57
2023/07/10 02:01:37;;;;;;;14.03;5.90;;;;;;;27.42;66.83;99211.31;5020505;28;20049;-57
2023/07/10 02:04:11;;;;;;;14.30;6.07;;;;;;;27.71;67.74;99226.25;5009888;28;20057;-58
2023/07/10 02:06:42;;;;;;;17.53;5.57;;;;;;;27.71;65.82;99226.25;5010219;28;20111;-58
2023/07/10 02:09:14;;;;;;;14.97;5.93;;;;;;;27.36;66.04;99230.75;5021367;28;20060;-57
2023/07/10 02:26:43;;;;;;;14.67;6.47;;;;;;;25.13;73.02;99230.19;5014626;28;20068;-57
2023/07/10 02:29:14;;;;;;;16.77;6.20;;;;;;;24.83;73.59;99242.72;5032744;28;20124;-58
2023/07/10 02:31:44;;;;;;;8.43;6.33;;;;;;;24.58;74.30;99235.28;5013420;28;20085;-58
2023/07/10 02:34:15;;;;;;;11.00;6.20;;;;;;;24.44;75.21;99224.00;5017101;28;20053;-58
2023/07/10 02:36:46;;;;;;;15.57;6.57;;;;;;;24.56;73.96;99231.91;5008322;28;20415;-57
2023/07/10 02:39:16;;;;;;;20.93;6.77;;;;;;;24.62;75.59;99236.69;5019298;28;20049;-58
2023/07/10 02:41:55;;;;;;;11.23;6.97;;;;;;;24.71;74.87;99241.19;5007657;28;20067;-59
2023/07/10 02:44:26;;;;;;;14.53;7.23;;;;;;;24.87;76.30;99244.13;5018613;28;20355;-59
2023/07/10 02:46:57;;;;;;;11.63;7.57;;;;;;;24.82;74.23;99242.88;5006857;28;20383;-60
2023/07/10 02:49:27;;;;;;;19.00;7.50;;;;;;;24.82;74.85;99243.72;5020374;28;20515;-59
2023/07/10 02:51:57;;;;;;;14.57;7.37;;;;;;;24.63;74.01;99241.03;5009010;28;20060;-59
2023/07/10 02:54:28;;;;;;;11.40;6.80;;;;;;;24.77;74.98;99245.13;5020852;28;20371;-58
2023/07/10 02:57:00;;;;;;;12.57;7.10;;;;;;;24.76;74.35;99249.59;5006785;28;20521;-59
2023/07/10 02:59:30;;;;;;;14.67;6.67;;;;;;;24.59;74.66;99253.84;5019192;28;20041;-58
2023/07/10 03:02:01;;;;;;;18.13;7.30;;;;;;;24.38;76.46;99259.25;5010744;28;20044;-59
2023/07/10 03:04:32;;;;;;;12.27;6.77;;;;;;;24.56;77.30;99263.94;5017536;28;20053;-59
2023/07/10 03:07:02;;;;;;;16.30;7.00;;;;;;;24.52;75.21;99248.22;5008882;28;20096;-57
2023/07/10 03:09:33;;;;;;;10.50;5.97;;;;;;;24.44;74.76;99253.38;5019374;28;20381;-58
2023/07/10 03:12:05;;;;;;;14.10;6.70;;;;;;;24.49;76.02;99253.00;5005375;28;20061;-58
2023/07/10 03:14:36;;;;;;;13.23;6.07;;;;;;;24.60;76.04;99254.69;5017149;28;20080;-57
2023/07/10 03:17:06;;;;;;;11.07;6.53;;;;;;;24.81;75.10;99255.41;5008381;28;20048;-58
2023/07/10 03:19:37;;;;;;;9.60;6.50;;;;;;;24.98;75.03;99235.97;5018577;28;20041;-58
2023/07/10 03:22:08;;;;;;;11.77;6.40;;;;;;;25.11;72.58;99237.50;5017961;28;20620;-57
2023/07/10 03:24:38;;;;;;;13.73;6.47;;;;;;;24.93;74.32;99242.72;5020555;28;20471;-59
2023/07/10 03:27:10;;;;;;;14.10;6.13;;;;;;;24.86;74.09;99238.94;5007004;28;20059;-57
2023/07/10 03:29:41;;;;;;;17.53;6.57;;;;;;;24.73;73.89;99239.22;5008523;28;20275;-57
2023/07/10 03:32:11;;;;;;;12.57;6.80;;;;;;;24.54;74.27;99245.41;5018869;28;20048;-58
2023/07/10 03:34:42;;;;;;;11.70;6.73;;;;;;;24.31;74.83;99250.09;5007891;28;20052;-58
2023/07/10 03:37:13;;;;;;;10.60;7.03;;;;;;;24.21;75.82;99249.22;5015472;28;20558;-58
2023/07/10 03:39:43;;;;;;;9.37;6.20;;;;;;;24.06;76.35;99257.66;5009788;28;20153;-60
2023/07/10 03:42:15;;;;;;;9.20;6.60;;;;;;;23.91;76.89;99253.63;5019876;28;20110;-60
2023/07/10 03:44:46;;;;;;;13.97;6.73;;;;;;;23.88;78.59;99256.56;5008345;28;20073;-59
2023/07/10 03:47:16;;;;;;;11.87;6.63;;;;;;;23.87;78.23;99257.56;5018151;28;20052;-59
2023/07/10 03:49:47;;;;;;;14.37;7.17;;;;;;;23.80;78.11;99267.91;5009571;28;20083;-59
2023/07/10 03:52:17;;;;;;;12.13;6.63;;;;;;;23.66;77.70;99271.78;5017035;28;20057;-59
2023/07/10 03:54:48;;;;;;;13.47;7.30;;;;;;;23.50;78.41;99270.56;5009835;28;20052;-58
2023/07/10 03:57:20;;;;;;;9.83;6.90;;;;;;;23.40;78.21;99275.81;5016669;28;20053;-58
2023/07/10 03:59:50;;;;;;;9.77;7.10;;;;;;;23.17;78.96;99277.78;5008638;28;20063;-58
2023/07/10 04:02:21;;;;;;;10.77;6.80;;;;;;;23.02;79.96;99277.25;5019034;28;20057;-60
2023/07/10 04:04:51;;;;;;;11.80;6.80;;;;;;;22.96;80.19;99277.72;5000968;28;20075;-58
2023/07/10 04:07:22;;;;;;;13.37;7.17;;;;;;;22.91;79.54;99274.59;5017964;28;20054;-60
2023/07/10 04:09:53;;;;;;;15.00;6.40;;;;;;;22.85;79.79;99275.13;5002838;28;20042;-59
2023/07/10 04:12:29;;;;;;;12.10;6.60;;;;;;;22.88;80.23;99290.84;5024685;28;20881;-59
2023/07/10 04:15:02;;;;;;;11.67;6.40;;;;;;;23.05;80.02;99287.66;5008247;28;20052;-59
2023/07/10 04:17:34;;;;;;;9.97;6.17;;;;;;;23.16;79.20;99300.91;5021114;28;20494;-59
2023/07/10 04:20:08;;;;;;;15.90;6.90;;;;;;;23.30;79.13;99301.56;5030319;28;20060;-56
2023/07/10 04:22:40;;;;;;;11.83;6.13;;;;;;;23.31;78.59;99308.59;5008714;28;20404;-58
2023/07/10 04:25:11;;;;;;;12.43;6.13;;;;;;;23.43;77.56;99302.22;5014735;28;20041;-58
2023/07/10 04:27:43;;;;;;;10.90;6.30;;;;;;;23.46;78.71;99301.94;5010558;28;20079;-59
2023/07/10 04:30:14;;;;;;;23.97;7.43;;;;;;;23.46;77.60;99312.63;5019380;28;20044;-57
2023/07/10 04:32:44;;;;;;;10.40;6.00;;;;;;;23.50;77.48;99311.38;5008196;28;20045;-58
2023/07/10 04:35:15;;;;;;;10.33;6.17;;;;;;;23.51;77.87;99320.22;5018897;28;20588;-60
2023/07/10 04:37:45;;;;;;;10.63;6.17;;;;;;;23.44;77.01;99312.75;5007315;28;20067;-59
2023/07/10 04:40:16;;;;;;;9.07;6.00;;;;;;;23.45;77.37;99321.59;5019338;28;20068;-58
2023/07/10 04:42:50;;;;;;;14.00;6.63;;;;;;;23.31;76.99;99329.91;5008401;28;20084;-58
2023/07/10 04:45:21;;;;;;;13.53;6.37;;;;;;;23.32;77.97;99331.63;5019740;28;20450;-60
2023/07/10 04:47:51;;;;;;;12.20;6.30;;;;;;;23.29;78.05;99332.72;5007428;28;20049;-58
2023/07/10 04:50:22;;;;;;;6.57;5.33;;;;;;;23.18;77.21;99320.28;5018753;28;20045;-58
2023/07/10 04:52:53;;;;;;;10.37;5.57;;;;;;;22.86;78.11;99298.09;5007677;28;20071;-59
2023/07/10 04:55:23;;;;;;;9.07;6.00;;;;;;;22.87;78.02;99326.44;5015486;28;20534;-58
2023/07/10 04:57:55;;;;;;;10.03;5.80;;;;;;;22.86;79.19;99319.41;5007468;28;20541;-58
2023/07/10 05:00:26;;;;;;;13.07;6.17;;;;;;;23.03;79.15;99316.22;5016221;28;20052;-58
2023/07/10 05:02:56;;;;;;;15.13;6.77;;;;;;;23.22;78.88;99324.38;5006492;28;20043;-58
2023/07/10 05:05:27;;;;;;;9.77;6.63;;;;;;;23.52;77.94;99317.44;5018775;28;20370;-58
2023/07/10 05:07:57;;;;;;;9.90;6.93;;;;;;;23.40;76.25;99307.81;5010905;28;20054;-59
2023/07/10 05:10:28;;;;;;;10.00;7.07;;;;;;;23.49;75.25;99312.38;5019282;28;20044;-60
2023/07/10 05:13:01;;;;;;;10.37;6.30;;;;;;;23.62;76.81;99318.34;5010963;28;20056;-59
2023/07/10 05:15:32;;;;;;;9.83;6.90;;;;;;;23.65;76.19;99311.91;5020320;28;20157;-58
2023/07/10 05:18:03;;;;;;;12.60;7.03;;;;;;;23.94;77.65;99321.88;5008276;28;20363;-58
2023/07/10 05:20:33;;;;;;;11.37;7.27;;;;;;;23.95;74.10;99318.25;5018668;28;20053;-58
2023/07/10 05:23:04;;;;;;;13.50;7.67;;;;;;;23.96;74.88;99320.78;5008306;28;20120;-58
2023/07/10 05:25:34;;;;;;;13.37;7.27;;;;;;;23.90;74.92;99316.00;5017997;28;20040;-58
2023/07/10 05:28:07;;;;;;;28.30;7.23;;;;;;;23.93;73.82;99314.88;5010773;28;20572;-59
2023/07/10 05:30:37;;;;;;;11.70;6.97;;;;;;;23.65;73.83;99270.06;5020568;28;20052;-58
2023/07/10 05:33:08;;;;;;;15.80;6.73;;;;;;;23.79;74.36;99321.41;5009514;28;20041;-58
2023/07/10 05:35:38;;;;;;;15.27;7.30;;;;;;;23.50;75.98;99314.06;5013592;28;20045;-59
2023/07/10 05:38:09;;;;;;;13.73;6.70;;;;;;;23.43;76.59;99302.22;5017628;28;20147;-58
2023/07/10 05:40:44;;;;;;;17.03;7.40;;;;;;;23.30;75.98;99257.09;5010283;28;20947;-57
2023/07/10 05:43:17;;;;;;;14.57;7.33;;;;;;;23.99;77.28;99312.53;5018323;28;20060;-58
2023/07/10 05:45:49;;;;;;;11.03;7.10;;;;;;;24.15;74.54;99314.69;5008197;28;20111;-58
2023/07/10 05:48:20;;;;;;;13.47;7.57;;;;;;;24.37;75.67;99324.31;5019507;28;20068;-58
2023/07/10 05:50:53;;;;;;;14.67;8.30;;;;;;;24.62;75.13;99322.16;5009582;28;20056;-59
2023/07/10 05:53:25;;;;;;;13.63;8.40;;;;;;;24.55;74.62;99305.84;5019901;28;20127;-58
2023/07/10 05:55:59;;;;;;;13.97;7.63;;;;;;;24.56;74.23;99322.69;5010476;28;20052;-58
2023/07/10 05:58:35;;;;;;;13.60;8.03;;;;;;;24.66;73.40;99318.22;5018363;28;20475;-58
2023/07/10 06:01:07;;;;;;;12.13;8.03;;;;;;;24.46;73.60;99314.66;5008372;28;20077;-58
2023/07/10 06:03:38;;;;;;;15.20;8.87;;;;;;;24.45;74.61;99311.16;5015223;28;20049;-57
2023/07/10 06:06:10;;;;;;;12.03;8.03;;;;;;;24.49;74.07;99312.56;5018108;28;20041;-59
2023/07/10 06:08:42;;;;;;;14.87;8.37;;;;;;;24.37;74.23;99313.63;5010387;28;20431;-58
2023/07/10 06:11:13;;;;;;;15.13;7.90;;;;;;;24.38;74.58;99314.47;5021602;28;20071;-59
2023/07/10 06:13:46;;;;;;;14.07;8.53;;;;;;;24.36;75.44;99311.94;5009641;28;20408;-59
2023/07/10 06:16:18;;;;;;;16.00;7.77;;;;;;;24.39;75.88;99314.34;5020436;28;20464;-60
2023/07/10 06:18:50;;;;;;;14.97;7.80;;;;;;;24.37;75.39;99324.31;5012055;28;21125;-58
2023/07/10 06:21:21;;;;;;;11.53;7.73;;;;;;;24.29;74.96;99324.16;5020985;28;20057;-59
2023/07/10 06:23:52;;;;;;;16.73;7.73;;;;;;;24.11;75.76;99318.59;5010174;28;20118;-58
2023/07/10 06:26:24;;;;;;;13.03;8.47;;;;;;;24.02;75.22;99324.75;5020220;28;20140;-60
2023/07/10 06:28:58;;;;;;;14.97;8.20;;;;;;;24.06;76.70;99321.69;5010424;28;20137;-59
2023/07/10 06:31:29;;;;;;;11.30;7.73;;;;;;;24.15;75.20;99329.84;5020946;28;20073;-58
2023/07/10 06:34:01;;;;;;;19.73;7.70;;;;;;;24.14;75.65;99328.16;5010434;28;20079;-59
2023/07/10 06:36:32;;;;;;;11.60;6.77;;;;;;;24.20;74.95;99324.97;5020494;28;20501;-59
2023/07/10 06:39:03;;;;;;;19.90;8.03;;;;;;;24.03;75.04;99316.59;5007282;28;20067;-59
2023/07/10 06:41:35;;;;;;;13.83;7.43;;;;;;;23.97;75.67;99327.81;5020424;28;20056;-58
2023/07/10 06:44:09;;;;;;;13.33;7.73;;;;;;;24.08;75.78;99338.38;5009912;28;20444;-59
2023/07/10 06:46:43;;;;;;;17.80;7.57;;;;;;;24.05;75.44;99303.97;5010129;28;20051;-58
2023/07/10 06:49:15;;;;;;;10.43;7.47;;;;;;;24.15;74.38;99332.53;5020294;28;20467;-59
2023/07/10 06:51:47;;;;;;;14.93;8.97;;;;;;;23.94;74.20;99328.09;5010956;28;20064;-58
2023/07/10 06:54:18;;;;;;;14.13;7.57;;;;;;;23.75;75.57;99325.31;5020557;28;20451;-56
2023/07/10 06:56:50;;;;;;;12.77;7.90;;;;;;;23.64;76.11;99319.06;5005900;28;20048;-59
2023/07/10 06:59:24;;;;;;;11.37;7.13;;;;;;;23.55;76.63;99327.84;5019819;28;20053;-56
2023/07/10 07:01:56;;;;;;;13.43;7.23;;;;;;;23.58;76.79;99330.22;5008526;28;20091;-59
2023/07/10 07:04:28;;;;;;;15.30;7.93;;;;;;;23.87;76.81;99332.28;5020316;28;20049;-59
2023/07/10 07:07:01;;;;;;;13.53;8.37;;;;;;;23.99;75.45;99325.00;5010137;28;20468;-60
2023/07/10 07:09:33;;;;;;;9.83;7.10;;;;;;;24.11;75.46;99340.81;5019970;28;20053;-60
2023/07/10 07:12:04;;;;;;;11.47;7.80;;;;;;;24.03;75.63;99335.28;5010245;28;20065;-58
2023/07/10 07:14:38;;;;;;;9.00;6.50;;;;;;;23.93;75.49;99331.72;5020303;28;20467;-59
2023/07/10 07:17:10;;;;;;;11.37;7.00;;;;;;;23.90;75.51;99326.66;5010053;28;20075;-60
2023/07/10 07:19:42;;;;;;;13.47;7.87;;;;;;;23.86;75.39;99331.44;5008925;28;20557;-60
2023/07/10 07:22:14;;;;;;;11.83;7.00;;;;;;;23.76;75.87;99319.00;5019606;28;20037;-58
2023/07/10 07:24:46;;;;;;;10.80;6.73;;;;;;;23.66;75.67;99314.44;5007869;28;20151;-59
2023/07/10 07:27:19;;;;;;;12.87;6.97;;;;;;;23.60;77.19;99324.78;5018929;28;20048;-59
2023/07/10 07:29:53;;;;;;;11.27;6.70;;;;;;;23.72;78.00;99322.91;5009770;28;20139;-57
2023/07/10 07:32:25;;;;;;;8.83;6.80;;;;;;;23.81;76.70;99335.44;5019302;28;20052;-58
2023/07/10 07:34:57;;;;;;;12.63;6.73;;;;;;;23.73;76.11;99340.59;5008418;28;20045;-57
2023/07/10 07:37:29;;;;;;;12.43;6.50;;;;;;;23.56;75.94;99318.84;5019917;28;20056;-56
2023/07/10 07:40:02;;;;;;;15.73;6.10;;;;;;;23.67;77.39;99332.13;5009732;28;20480;-59
2023/07/10 07:42:38;;;;;;;12.43;6.87;;;;;;;23.75;76.67;99333.31;5019634;28;20152;-59
2023/07/10 07:45:12;;;;;;;15.83;7.53;;;;;;;23.56;76.28;99328.69;5009566;28;20068;-58
2023/07/10 07:47:45;;;;;;;9.90;6.83;;;;;;;23.45;76.56;99342.94;5010052;28;20068;-57
2023/07/10 07:50:18;;;;;;;12.77;6.73;;;;;;;23.17;77.88;99339.09;5019517;28;21424;-58
2023/07/10 07:52:50;;;;;;;7.93;6.30;;;;;;;23.15;77.79;99355.19;5009513;28;20119;-58
2023/07/10 07:55:22;;;;;;;10.20;5.90;;;;;;;23.04;78.81;99355.25;5019977;28;20142;-58
2023/07/10 07:57:54;;;;;;;10.87;6.40;;;;;;;22.86;78.85;99359.38;5010170;28;20052;-58
2023/07/10 08:00:27;;;;;;;8.53;5.77;;;;;;;22.55;80.08;99369.84;5020049;28;20052;-58
2023/07/10 08:02:59;;;;;;;12.57;6.47;;;;;;;22.39;80.84;99371.09;5009918;28;20151;-59
2023/07/10 08:05:32;;;;;;;9.97;6.40;;;;;;;22.38;81.62;99374.69;5019223;28;20476;-58
2023/07/10 08:08:07;;;;;;;9.30;6.27;;;;;;;22.38;81.48;99366.72;5009128;28;20144;-58
2023/07/10 08:10:41;;;;;;;12.37;6.87;;;;;;;22.36;81.69;99371.31;5013923;28;20061;-57
2023/07/10 08:13:14;;;;;;;14.40;5.70;;;;;;;22.29;81.91;99374.56;5017470;28;20049;-59
2023/07/10 08:15:47;;;;;;;16.70;6.77;;;;;;;22.30;82.36;99366.47;5008866;28;20048;-59
2023/07/10 08:18:19;;;;;;;13.07;6.43;;;;;;;22.34;81.57;99373.28;5018409;28;20387;-58
2023/07/10 08:20:51;;;;;;;13.07;7.67;;;;;;;22.28;81.31;99368.41;5009487;28;20052;-58
2023/07/10 08:23:23;;;;;;;9.97;6.07;;;;;;;22.17;81.10;99365.75;5016955;28;20033;-57
2023/07/10 08:25:55;;;;;;;8.57;6.00;;;;;;;22.15;81.19;99378.31;5007504;28;20052;-59
2023/07/10 08:28:27;;;;;;;9.90;6.47;;;;;;;22.05;81.46;99380.84;5017570;28;20514;-58
2023/07/10 08:31:01;;;;;;;10.97;5.93;;;;;;;21.79;82.58;99380.22;5009496;28;20070;-59
2023/07/10 08:33:33;;;;;;;11.20;7.13;;;;;;;21.75;83.11;99386.72;5019132;28;20295;-59
2023/07/10 08:36:07;;;;;;;15.00;6.53;;;;;;;21.76;82.63;99380.44;5007717;28;20053;-60
2023/07/10 08:38:40;;;;;;;10.40;5.60;;;;;;;21.65;82.92;99375.09;5016143;28;20279;-58
2023/07/10 08:41:20;;;;;;;10.87;5.93;;;;;;;21.41;83.29;99368.00;5019987;28;20303;-59
2023/07/10 08:43:53;;;;;;;10.23;5.53;;;;;;;21.39;84.02;99385.03;5012388;28;20279;-59
2023/07/10 08:46:28;;;;;;;10.17;5.63;;;;;;;21.30;84.39;99387.41;5019640;28;20828;-58
2023/07/10 08:49:05;;;;;;;10.13;5.70;;;;;;;21.26;84.48;99390.41;5012165;28;20311;-58
2023/07/10 08:51:44;;;;;;;9.97;6.30;;;;;;;21.24;85.06;99397.63;5021102;28;20292;-59
2023/07/10 08:54:20;;;;;;;8.00;5.13;;;;;;;21.21;84.12;99408.50;5010461;28;20299;-59
2023/07/10 08:57:11;;;;;;;8.90;6.27;;;;;;;21.10;84.98;99410.13;5010330;28;21240;-59
2023/07/10 08:59:58;;;;;;;12.57;6.67;;;;;;;21.03;85.26;99410.69;5011254;28;20314;-59
2023/07/10 09:03:03;;;;;;;12.50;6.70;;;;;;;20.87;85.55;99405.66;4956968;28;20281;-60
2023/07/10 09:05:39;;;;;;;10.03;6.57;;;;;;;20.78;85.71;99396.53;4968094;28;20069;-58
2023/07/10 09:08:19;;;;;;;11.43;7.00;;;;;;;20.97;85.79;99422.63;4956328;28;20684;-60
2023/07/10 09:10:56;;;;;;;9.93;6.43;;;;;;;21.02;84.87;99404.53;4956528;28;20324;-59
2023/07/10 09:13:34;;;;;;;15.77;7.07;;;;;;;20.91;84.50;99409.78;4966155;28;20276;-59
2023/07/10 09:16:14;;;;;;;12.40;6.70;;;;;;;20.73;84.63;99419.09;4959867;28;20760;-59
2023/07/10 09:18:54;;;;;;;18.37;7.43;;;;;;;20.40;85.74;99428.47;4958940;28;20062;-59
2023/07/10 09:21:32;;;;;;;13.10;6.67;;;;;;;20.15;86.93;99430.16;4965668;28;20384;-59
2023/07/10 09:24:05;;;;;;;10.43;6.10;;;;;;;20.02;88.06;99429.31;4957996;28;20301;-59
2023/07/10 09:26:38;;;;;;;8.17;6.17;;;;;;;19.97;88.39;99442.06;4967695;28;20293;-59
2023/07/10 09:29:27;;;;;;;12.70;6.43;;;;;;;19.92;89.14;99441.50;4959096;28;20290;-60
2023/07/10 09:32:10;;;;;;;13.07;6.77;;;;;;;19.90;89.38;99435.47;4954610;28;20287;-58
2023/07/10 09:34:50;;;;;;;12.73;6.67;;;;;;;19.75;89.53;99443.50;4954841;28;20352;-58
2023/07/10 09:37:26;;;;;;;10.97;6.47;;;;;;;19.54;90.49;99455.50;4968063;28;20672;-59
2023/07/10 09:39:57;;;;;;;9.70;6.67;;;;;;;19.49;90.96;99465.53;4956232;28;20847;-59
2023/07/10 09:42:34;;;;;;;8.07;6.27;;;;;;;19.34;91.24;99470.88;4967834;28;20284;-60
2023/07/10 09:45:10;;;;;;;12.00;6.27;;;;;;;19.22;91.67;99471.72;4956838;28;20286;-59
2023/07/10 09:47:47;;;;;;;24.00;6.97;;;;;;;19.12;92.45;99465.28;5005672;28;20356;-60
2023/07/10 09:50:20;;;;;;;9.40;6.30;;;;;;;18.65;92.98;99446.16;5018037;28;20291;-61
2023/07/10 09:52:56;;;;;;;8.73;6.33;;;;;;;18.57;94.18;99474.03;5008525;28;20622;-60
2023/07/10 09:55:26;;;;;;;11.93;6.43;;;;;;;18.48;95.33;99491.34;5017504;28;20273;-60
2023/07/10 09:58:00;;;;;;;8.83;6.07;;;;;;;18.33;95.99;99493.13;5009733;28;20291;-61
2023/07/10 10:00:32;;;;;;;7.87;6.10;;;;;;;18.18;97.02;99491.41;5020031;28;20749;-60
2023/07/10 10:03:16;;;;;;;11.73;6.43;;;;;;;17.97;97.88;99491.75;5009916;28;20279;-60
2023/07/10 10:05:57;;;;;;;9.37;6.57;;;;;;;17.86;98.89;99510.88;5011744;28;20287;-60
2023/07/10 10:08:31;;;;;;;12.45;7.20;;;;;;;17.76;99.54;99503.53;5020107;28;20386;-60
2023/07/10 10:11:07;;;;;;;10.17;6.67;;;;;;;17.52;99.79;99474.94;5011293;28;20186;-60
2023/07/10 10:13:43;;;;;;;11.57;6.13;;;;;;;17.71;100.00;99526.75;5019220;28;20334;-60
2023/07/10 10:16:28;;;;;;;11.67;7.07;;;;;;;17.56;100.00;99518.75;5019713;28;20302;-60
2023/07/10 10:19:06;;;;;;;9.40;6.80;;;;;;;16.90;100.00;99439.75;5010633;28;20285;-60
2023/07/10 10:21:46;;;;;;;10.50;7.23;;;;;;;17.29;100.00;99520.31;5011823;28;20349;-60
2023/07/10 10:24:20;;;;;;;10.77;7.03;;;;;;;17.05;100.00;99478.50;5020970;28;20370;-61
2023/07/10 10:27:13;;;;;;;9.93;6.70;;;;;;;17.37;100.00;99513.69;5010330;28;21209;-59
2023/07/10 10:30:09;;;;;;;10.57;6.63;;;;;;;17.38;100.00;99519.81;5009380;28;20301;-58
2023/07/10 10:32:50;;;;;;;18.10;7.33;;;;;;;17.37;100.00;99524.25;5009752;28;20302;-59
2023/07/10 10:35:27;;;;;;;12.87;7.30;;;;;;;17.35;100.00;99526.09;5019100;28;20314;-60
2023/07/10 10:38:23;;;;;;;16.67;7.17;;;;;;;17.42;100.00;99531.88;5010144;28;20360;-60
2023/07/10 10:41:13;;;;;;;10.60;6.73;;;;;;;17.54;100.00;99538.25;5008890;28;20658;-61
2023/07/10 10:43:56;;;;;;;10.45;6.78;;;;;;;17.63;100.00;99530.66;5010613;28;20370;-61
2023/07/10 10:46:51;;;;;;;17.13;7.17;;;;;;;17.11;100.00;99453.56;5018404;28;20211;-60
2023/07/10 10:49:43;;;;;;;15.03;6.73;;;;;;;17.56;100.00;99545.16;5017002;28;20362;-58
2023/07/10 10:52:25;;;;;;;11.67;7.33;;;;;;;17.56;100.00;99547.81;5008471;28;20310;-59
2023/07/10 10:55:24;;;;;;;12.73;7.53;;;;;;;17.46;100.00;99543.97;5008280;28;20306;-59
2023/07/10 10:58:23;;;;;;;13.00;7.77;;;;;;;17.28;100.00;99526.53;5008811;28;20682;-58
2023/07/10 11:01:15;;;;;;;17.43;7.73;;;;;;;17.50;100.00;99571.06;5007403;28;20294;-60
2023/07/10 11:03:54;;;;;;;14.52;7.57;;;;;;;17.27;100.00;99553.84;5008325;28;20744;-60
2023/07/10 11:06:45;;;;;;;10.25;6.95;;;;;;;17.42;100.00;99579.41;5018320;28;20348;-60
2023/07/10 11:09:23;;;;;;;11.70;7.40;;;;;;;17.41;100.00;99593.56;5009366;28;20420;-60
2023/07/10 11:12:02;;;;;;;13.23;7.60;;;;;;;17.22;100.00;99578.75;5008685;28;20325;-60
2023/07/10 11:14:39;;;;;;;10.23;7.25;;;;;;;17.20;100.00;99583.25;5017776;28;20052;-59
2023/07/10 11:17:13;;;;;;;10.13;7.13;;;;;;;17.03;100.00;99567.47;5008451;28;20064;-59
2023/07/10 11:19:48;;;;;;;16.10;7.80;;;;;;;17.19;100.00;99610.56;5007946;28;20325;-59
2023/07/10 11:22:28;;;;;;;12.60;7.47;;;;;;;17.20;100.00;99616.72;5020611;28;21185;-60
2023/07/10 11:25:01;;;;;;;11.07;7.70;;;;;;;17.07;100.00;99595.38;5010455;28;20287;-60
2023/07/10 11:27:44;;;;;;;10.90;7.70;;;;;;;17.20;100.00;99617.56;5021048;28;20390;-60
2023/07/10 11:30:17;;;;;;;13.63;7.40;;;;;;;17.17;100.00;99617.75;5009186;28;20283;-61
2023/07/10 11:33:06;;;;;;;10.97;7.37;;;;;;;17.26;100.00;99619.03;5008478;28;20390;-60
2023/07/10 11:36:13;;;;;;;11.00;7.70;;;;;;;17.32;100.00;99620.47;5008342;28;20659;-59
2023/07/10 11:38:58;;;;;;;11.57;7.00;;;;;;;17.24;100.00;99618.25;5009470;28;20303;-60
2023/07/10 11:41:33;;;;;;;12.33;7.80;;;;;;;17.25;100.00;99615.53;5019504;28;20292;-60
2023/07/10 11:44:31;;;;;;;10.33;7.57;;;;;;;17.20;100.00;99601.72;5007502;28;20268;-60
2023/07/10 11:47:18;;;;;;;11.97;7.57;;;;;;;17.22;100.00;99604.28;5007996;28;20579;-60
2023/07/10 11:50:08;;;;;;;13.38;7.90;;;;;;;17.18;100.00;99614.16;5006817;28;20315;-59
2023/07/10 11:52:42;;;;;;;11.95;7.75;;;;;;;17.17;100.00;99612.47;5011963;28;20044;-60
2023/07/10 11:55:42;;;;;;;11.23;7.73;;;;;;;17.15;100.00;99609.06;5019735;28;20080;-60
2023/07/10 11:58:30;;;;;;;12.00;7.87;;;;;;;17.15;100.00;99598.50;5010077;28;20272;-60
2023/07/10 12:01:14;;;;;;;13.73;7.87;;;;;;;17.05;100.00;99586.72;5007957;28;20307;-59
2023/07/10 12:03:47;;;;;;;16.17;7.87;;;;;;;16.89;100.00;99554.16;5009892;28;20283;-60
2023/07/10 12:06:23;;;;;;;10.53;7.10;;;;;;;17.12;100.00;99588.06;5017893;28;20760;-60
2023/07/10 12:09:04;;;;;;;12.53;8.37;;;;;;;17.04;100.00;99574.44;5005062;28;20292;-60
2023/07/10 12:11:40;;;;;;;12.43;8.30;;;;;;;17.12;100.00;99572.22;5018723;28;20741;-60
2023/07/10 12:14:13;;;;;;;12.80;8.20;;;;;;;17.00;100.00;99557.09;5017390;28;20279;-60